sensor_id;sensor_type;location;lat;lon;timestamp;P1;durP1;ratioP1;P2;durP2;ratioP2
19929;SDS011;10127;47.780;9.606;2022-08-19T00:01:41;15.00;;;11.25;;
19929;SDS011;10127;47.780;9.606;2022-08-19T00:04:08;14.38;;;11.40;;
19929;SDS011;10127;47.780;9.606;2022-08-19T00:06:37;12.68;;;11.25;;
19929;SDS011;10127;47.780;9.606;2022-08-19T00:09:06;13.55;;;11.18;;
19929;SDS011;10127;47.780;9.606;2022-08-19T00:11:35;18.80;;;11.13;;
19929;SDS011;10127;47.780;9.606;2022-08-19T00:14:02;13.68;;;11.00;;
19929;SDS011;10127;47.780;9.606;2022-08-19T00:16:29;14.45;;;11.68;;
19929;SDS011;10127;47.780;9.606;2022-08-19T00:18:55;13.52;;;10.98;;
19929;SDS011;10127;47.780;9.606;2022-08-19T00:21:21;12.65;;;10.57;;
19929;SDS011;10127;47.780;9.606;2022-08-19T00:23:51;13.35;;;10.90;;
19929;SDS011;10127;47.780;9.606;2022-08-19T00:26:18;12.40;;;10.95;;
19929;SDS011;10127;47.780;9.606;2022-08-19T00:28:44;11.35;;;9.02;;
19929;SDS011;10127;47.780;9.606;2022-08-19T00:31:09;11.45;;;9.10;;
19929;SDS011;10127;47.780;9.606;2022-08-19T00:33:35;11.43;;;10.23;;
19929;SDS011;10127;47.780;9.606;2022-08-19T00:36:03;13.38;;;9.10;;
19929;SDS011;10127;47.780;9.606;2022-08-19T00:38:31;11.10;;;9.88;;
19929;SDS011;10127;47.780;9.606;2022-08-19T00:40:57;11.40;;;9.90;;
19929;SDS011;10127;47.780;9.606;2022-08-19T00:43:24;11.00;;;9.90;;
19929;SDS011;10127;47.780;9.606;2022-08-19T00:45:52;11.60;;;10.07;;
19929;SDS011;10127;47.780;9.606;2022-08-19T00:48:18;11.40;;;10.20;;
19929;SDS011;10127;47.780;9.606;2022-08-19T00:50:44;10.80;;;9.65;;
19929;SDS011;10127;47.780;9.606;2022-08-19T00:53:11;13.10;;;10.63;;
19929;SDS011;10127;47.780;9.606;2022-08-19T00:55:40;12.25;;;11.02;;
19929;SDS011;10127;47.780;9.606;2022-08-19T00:58:08;12.27;;;10.95;;
19929;SDS011;10127;47.780;9.606;2022-08-19T01:00:37;12.43;;;10.95;;
19929;SDS011;10127;47.780;9.606;2022-08-19T01:03:04;12.27;;;10.05;;
19929;SDS011;10127;47.780;9.606;2022-08-19T01:05:35;13.73;;;11.38;;
19929;SDS011;10127;47.780;9.606;2022-08-19T01:08:03;13.82;;;11.68;;
19929;SDS011;10127;47.780;9.606;2022-08-19T01:10:31;14.20;;;12.35;;
19929;SDS011;10127;47.780;9.606;2022-08-19T01:13:00;13.70;;;11.50;;
19929;SDS011;10127;47.780;9.606;2022-08-19T01:15:31;12.35;;;10.98;;
19929;SDS011;10127;47.780;9.606;2022-08-19T01:18:01;14.48;;;11.93;;
19929;SDS011;10127;47.780;9.606;2022-08-19T01:20:31;13.95;;;11.68;;
19929;SDS011;10127;47.780;9.606;2022-08-19T01:22:59;12.98;;;11.20;;
19929;SDS011;10127;47.780;9.606;2022-08-19T01:25:32;12.55;;;11.13;;
19929;SDS011;10127;47.780;9.606;2022-08-19T01:28:04;11.73;;;10.52;;
19929;SDS011;10127;47.780;9.606;2022-08-19T01:30:31;12.18;;;10.88;;
19929;SDS011;10127;47.780;9.606;2022-08-19T01:32:59;15.63;;;11.48;;
19929;SDS011;10127;47.780;9.606;2022-08-19T01:35:26;11.45;;;10.18;;
19929;SDS011;10127;47.780;9.606;2022-08-19T01:37:56;12.25;;;11.02;;
19929;SDS011;10127;47.780;9.606;2022-08-19T01:40:25;14.15;;;12.02;;
19929;SDS011;10127;47.780;9.606;2022-08-19T01:42:54;13.20;;;11.73;;
19929;SDS011;10127;47.780;9.606;2022-08-19T01:45:20;14.02;;;12.52;;
19929;SDS011;10127;47.780;9.606;2022-08-19T01:47:47;13.82;;;12.30;;
19929;SDS011;10127;47.780;9.606;2022-08-19T01:50:14;14.38;;;12.63;;
19929;SDS011;10127;47.780;9.606;2022-08-19T01:52:41;12.75;;;11.48;;
19929;SDS011;10127;47.780;9.606;2022-08-19T01:55:09;14.55;;;12.65;;
19929;SDS011;10127;47.780;9.606;2022-08-19T01:57:37;16.20;;;13.65;;
19929;SDS011;10127;47.780;9.606;2022-08-19T02:00:06;15.15;;;12.57;;
19929;SDS011;10127;47.780;9.606;2022-08-19T02:02:34;14.93;;;12.10;;
19929;SDS011;10127;47.780;9.606;2022-08-19T02:05:00;16.50;;;13.25;;
19929;SDS011;10127;47.780;9.606;2022-08-19T02:07:25;15.48;;;13.57;;
19929;SDS011;10127;47.780;9.606;2022-08-19T02:09:53;15.85;;;13.70;;
19929;SDS011;10127;47.780;9.606;2022-08-19T02:12:20;15.60;;;13.02;;
19929;SDS011;10127;47.780;9.606;2022-08-19T02:14:45;16.95;;;13.85;;
19929;SDS011;10127;47.780;9.606;2022-08-19T02:17:11;14.52;;;12.73;;
19929;SDS011;10127;47.780;9.606;2022-08-19T02:19:37;21.58;;;14.50;;
19929;SDS011;10127;47.780;9.606;2022-08-19T02:22:02;18.17;;;13.88;;
19929;SDS011;10127;47.780;9.606;2022-08-19T02:24:28;16.85;;;14.48;;
19929;SDS011;10127;47.780;9.606;2022-08-19T02:26:54;17.95;;;15.25;;
19929;SDS011;10127;47.780;9.606;2022-08-19T02:29:20;15.85;;;14.15;;
19929;SDS011;10127;47.780;9.606;2022-08-19T02:31:45;16.50;;;14.70;;
19929;SDS011;10127;47.780;9.606;2022-08-19T02:34:11;19.48;;;15.23;;
19929;SDS011;10127;47.780;9.606;2022-08-19T02:36:37;17.00;;;14.38;;
19929;SDS011;10127;47.780;9.606;2022-08-19T02:39:02;18.23;;;15.35;;
19929;SDS011;10127;47.780;9.606;2022-08-19T02:41:30;18.73;;;14.40;;
19929;SDS011;10127;47.780;9.606;2022-08-19T02:43:58;18.45;;;15.50;;
19929;SDS011;10127;47.780;9.606;2022-08-19T02:46:26;18.52;;;14.55;;
19929;SDS011;10127;47.780;9.606;2022-08-19T02:48:54;19.17;;;15.43;;
19929;SDS011;10127;47.780;9.606;2022-08-19T03:11:55;15.57;;;13.98;;
19929;SDS011;10127;47.780;9.606;2022-08-19T03:14:21;16.10;;;14.40;;
19929;SDS011;10127;47.780;9.606;2022-08-19T03:16:49;17.50;;;14.95;;
19929;SDS011;10127;47.780;9.606;2022-08-19T03:19:17;20.80;;;15.75;;
19929;SDS011;10127;47.780;9.606;2022-08-19T03:21:45;16.73;;;14.02;;
19929;SDS011;10127;47.780;9.606;2022-08-19T03:24:11;20.17;;;15.25;;
19929;SDS011;10127;47.780;9.606;2022-08-19T03:26:41;16.77;;;14.98;;
19929;SDS011;10127;47.780;9.606;2022-08-19T03:29:09;17.45;;;14.95;;
19929;SDS011;10127;47.780;9.606;2022-08-19T03:31:36;18.42;;;14.85;;
19929;SDS011;10127;47.780;9.606;2022-08-19T03:34:03;16.52;;;14.30;;
19929;SDS011;10127;47.780;9.606;2022-08-19T03:36:29;19.35;;;15.57;;
19929;SDS011;10127;47.780;9.606;2022-08-19T03:38:56;18.02;;;16.00;;
19929;SDS011;10127;47.780;9.606;2022-08-19T03:41:26;16.98;;;15.02;;
19929;SDS011;10127;47.780;9.606;2022-08-19T03:43:55;19.98;;;16.27;;
19929;SDS011;10127;47.780;9.606;2022-08-19T03:46:22;16.08;;;14.48;;
19929;SDS011;10127;47.780;9.606;2022-08-19T03:48:52;16.23;;;13.82;;
19929;SDS011;10127;47.780;9.606;2022-08-19T03:51:22;16.63;;;14.82;;
19929;SDS011;10127;47.780;9.606;2022-08-19T03:53:50;15.63;;;14.13;;
19929;SDS011;10127;47.780;9.606;2022-08-19T03:56:16;17.38;;;15.05;;
19929;SDS011;10127;47.780;9.606;2022-08-19T03:58:42;17.63;;;15.75;;
19929;SDS011;10127;47.780;9.606;2022-08-19T04:01:09;21.02;;;17.67;;
19929;SDS011;10127;47.780;9.606;2022-08-19T04:03:37;18.35;;;15.98;;
19929;SDS011;10127;47.780;9.606;2022-08-19T04:06:13;20.38;;;16.55;;
19929;SDS011;10127;47.780;9.606;2022-08-19T04:08:42;18.35;;;16.42;;
19929;SDS011;10127;47.780;9.606;2022-08-19T04:11:10;22.10;;;16.25;;
19929;SDS011;10127;47.780;9.606;2022-08-19T04:13:37;19.10;;;16.27;;
19929;SDS011;10127;47.780;9.606;2022-08-19T04:16:03;22.35;;;16.42;;
19929;SDS011;10127;47.780;9.606;2022-08-19T04:18:29;19.25;;;15.30;;
19929;SDS011;10127;47.780;9.606;2022-08-19T04:20:55;17.65;;;15.68;;
19929;SDS011;10127;47.780;9.606;2022-08-19T04:23:21;21.10;;;16.90;;
19929;SDS011;10127;47.780;9.606;2022-08-19T04:25:47;20.13;;;17.13;;
19929;SDS011;10127;47.780;9.606;2022-08-19T04:28:13;19.48;;;16.90;;
19929;SDS011;10127;47.780;9.606;2022-08-19T04:30:46;20.65;;;16.70;;
19929;SDS011;10127;47.780;9.606;2022-08-19T04:33:14;19.45;;;17.15;;
19929;SDS011;10127;47.780;9.606;2022-08-19T04:35:42;21.83;;;16.98;;
19929;SDS011;10127;47.780;9.606;2022-08-19T04:38:10;22.83;;;19.30;;
19929;SDS011;10127;47.780;9.606;2022-08-19T04:40:40;23.55;;;19.55;;
19929;SDS011;10127;47.780;9.606;2022-08-19T04:43:29;27.38;;;20.48;;
19929;SDS011;10127;47.780;9.606;2022-08-19T04:45:55;28.65;;;20.63;;
19929;SDS011;10127;47.780;9.606;2022-08-19T04:48:22;24.75;;;20.52;;
19929;SDS011;10127;47.780;9.606;2022-08-19T04:50:54;25.85;;;21.63;;
19929;SDS011;10127;47.780;9.606;2022-08-19T04:53:25;24.42;;;19.08;;
19929;SDS011;10127;47.780;9.606;2022-08-19T04:55:55;23.35;;;19.85;;
19929;SDS011;10127;47.780;9.606;2022-08-19T04:58:22;22.38;;;18.38;;
19929;SDS011;10127;47.780;9.606;2022-08-19T05:00:50;21.00;;;18.75;;
19929;SDS011;10127;47.780;9.606;2022-08-19T05:03:15;21.55;;;18.90;;
19929;SDS011;10127;47.780;9.606;2022-08-19T05:05:42;22.65;;;19.83;;
19929;SDS011;10127;47.780;9.606;2022-08-19T05:08:08;25.65;;;20.13;;
19929;SDS011;10127;47.780;9.606;2022-08-19T05:10:35;25.48;;;20.63;;
19929;SDS011;10127;47.780;9.606;2022-08-19T05:13:02;24.27;;;20.27;;
19929;SDS011;10127;47.780;9.606;2022-08-19T05:15:27;23.17;;;19.55;;
19929;SDS011;10127;47.780;9.606;2022-08-19T05:17:53;24.27;;;20.25;;
19929;SDS011;10127;47.780;9.606;2022-08-19T05:20:38;26.75;;;21.23;;
19929;SDS011;10127;47.780;9.606;2022-08-19T05:23:22;22.83;;;19.08;;
19929;SDS011;10127;47.780;9.606;2022-08-19T05:25:47;22.55;;;19.73;;
19929;SDS011;10127;47.780;9.606;2022-08-19T05:28:13;28.83;;;21.33;;
19929;SDS011;10127;47.780;9.606;2022-08-19T05:30:38;26.73;;;21.45;;
19929;SDS011;10127;47.780;9.606;2022-08-19T05:33:05;29.13;;;21.88;;
19929;SDS011;10127;47.780;9.606;2022-08-19T05:35:35;27.73;;;21.00;;
19929;SDS011;10127;47.780;9.606;2022-08-19T05:38:02;25.08;;;20.40;;
19929;SDS011;10127;47.780;9.606;2022-08-19T05:40:28;23.52;;;18.90;;
19929;SDS011;10127;47.780;9.606;2022-08-19T05:42:53;24.58;;;20.02;;
19929;SDS011;10127;47.780;9.606;2022-08-19T05:45:19;25.42;;;20.50;;
19929;SDS011;10127;47.780;9.606;2022-08-19T05:47:46;27.23;;;21.67;;
19929;SDS011;10127;47.780;9.606;2022-08-19T05:50:11;28.90;;;22.38;;
19929;SDS011;10127;47.780;9.606;2022-08-19T05:52:37;35.50;;;26.20;;
19929;SDS011;10127;47.780;9.606;2022-08-19T05:55:03;24.98;;;21.20;;
19929;SDS011;10127;47.780;9.606;2022-08-19T05:57:30;23.02;;;18.67;;
19929;SDS011;10127;47.780;9.606;2022-08-19T05:59:56;23.50;;;19.98;;
19929;SDS011;10127;47.780;9.606;2022-08-19T06:02:22;25.23;;;20.83;;
19929;SDS011;10127;47.780;9.606;2022-08-19T06:04:48;26.98;;;20.95;;
19929;SDS011;10127;47.780;9.606;2022-08-19T06:07:14;26.48;;;21.00;;
19929;SDS011;10127;47.780;9.606;2022-08-19T06:09:40;24.05;;;18.92;;
19929;SDS011;10127;47.780;9.606;2022-08-19T06:12:06;28.58;;;22.05;;
19929;SDS011;10127;47.780;9.606;2022-08-19T06:14:32;26.60;;;20.98;;
19929;SDS011;10127;47.780;9.606;2022-08-19T06:16:59;25.05;;;20.00;;
19929;SDS011;10127;47.780;9.606;2022-08-19T06:19:27;25.55;;;20.45;;
19929;SDS011;10127;47.780;9.606;2022-08-19T06:21:57;27.30;;;19.92;;
19929;SDS011;10127;47.780;9.606;2022-08-19T06:24:26;26.63;;;19.40;;
19929;SDS011;10127;47.780;9.606;2022-08-19T06:26:53;28.23;;;20.08;;
19929;SDS011;10127;47.780;9.606;2022-08-19T06:29:21;28.15;;;20.45;;
19929;SDS011;10127;47.780;9.606;2022-08-19T06:31:49;25.17;;;19.88;;
19929;SDS011;10127;47.780;9.606;2022-08-19T06:34:16;25.70;;;20.90;;
19929;SDS011;10127;47.780;9.606;2022-08-19T06:36:47;30.27;;;21.33;;
19929;SDS011;10127;47.780;9.606;2022-08-19T06:39:15;23.67;;;19.55;;
19929;SDS011;10127;47.780;9.606;2022-08-19T06:41:44;30.15;;;21.30;;
19929;SDS011;10127;47.780;9.606;2022-08-19T06:44:11;33.67;;;25.40;;
19929;SDS011;10127;47.780;9.606;2022-08-19T06:46:38;28.48;;;21.05;;
19929;SDS011;10127;47.780;9.606;2022-08-19T06:49:04;23.17;;;18.23;;
19929;SDS011;10127;47.780;9.606;2022-08-19T06:51:36;26.05;;;20.42;;
19929;SDS011;10127;47.780;9.606;2022-08-19T06:54:03;29.92;;;21.67;;
19929;SDS011;10127;47.780;9.606;2022-08-19T06:56:29;49.50;;;32.53;;
19929;SDS011;10127;47.780;9.606;2022-08-19T06:58:59;36.22;;;25.45;;
19929;SDS011;10127;47.780;9.606;2022-08-19T07:01:39;26.25;;;19.52;;
19929;SDS011;10127;47.780;9.606;2022-08-19T07:04:07;29.65;;;20.33;;
19929;SDS011;10127;47.780;9.606;2022-08-19T07:06:33;28.23;;;20.95;;
19929;SDS011;10127;47.780;9.606;2022-08-19T07:09:00;25.33;;;21.15;;
19929;SDS011;10127;47.780;9.606;2022-08-19T07:11:25;29.33;;;21.27;;
19929;SDS011;10127;47.780;9.606;2022-08-19T07:13:51;31.55;;;22.60;;
19929;SDS011;10127;47.780;9.606;2022-08-19T07:16:18;38.78;;;27.75;;
19929;SDS011;10127;47.780;9.606;2022-08-19T07:18:45;29.50;;;21.70;;
19929;SDS011;10127;47.780;9.606;2022-08-19T07:21:18;30.75;;;21.85;;
19929;SDS011;10127;47.780;9.606;2022-08-19T07:23:47;29.92;;;22.77;;
19929;SDS011;10127;47.780;9.606;2022-08-19T07:26:18;31.27;;;22.95;;
19929;SDS011;10127;47.780;9.606;2022-08-19T07:28:46;29.77;;;22.80;;
19929;SDS011;10127;47.780;9.606;2022-08-19T07:31:14;34.70;;;23.23;;
19929;SDS011;10127;47.780;9.606;2022-08-19T07:33:43;36.00;;;24.25;;
19929;SDS011;10127;47.780;9.606;2022-08-19T07:36:10;34.45;;;24.88;;
19929;SDS011;10127;47.780;9.606;2022-08-19T07:38:38;31.80;;;23.30;;
19929;SDS011;10127;47.780;9.606;2022-08-19T07:41:12;32.88;;;24.17;;
19929;SDS011;10127;47.780;9.606;2022-08-19T07:43:39;33.28;;;24.25;;
19929;SDS011;10127;47.780;9.606;2022-08-19T07:46:06;31.17;;;24.55;;
19929;SDS011;10127;47.780;9.606;2022-08-19T07:48:32;37.28;;;25.50;;
19929;SDS011;10127;47.780;9.606;2022-08-19T07:50:59;36.42;;;26.73;;
19929;SDS011;10127;47.780;9.606;2022-08-19T07:53:29;38.50;;;26.95;;
19929;SDS011;10127;47.780;9.606;2022-08-19T07:55:57;42.83;;;28.27;;
19929;SDS011;10127;47.780;9.606;2022-08-19T07:58:26;37.85;;;26.15;;
19929;SDS011;10127;47.780;9.606;2022-08-19T08:00:52;38.25;;;26.45;;
19929;SDS011;10127;47.780;9.606;2022-08-19T08:03:19;36.47;;;26.58;;
19929;SDS011;10127;47.780;9.606;2022-08-19T08:06:06;37.83;;;26.17;;
19929;SDS011;10127;47.780;9.606;2022-08-19T08:08:51;40.75;;;27.05;;
19929;SDS011;10127;47.780;9.606;2022-08-19T08:11:35;39.55;;;26.30;;
19929;SDS011;10127;47.780;9.606;2022-08-19T08:14:01;34.33;;;25.13;;
19929;SDS011;10127;47.780;9.606;2022-08-19T08:16:26;34.97;;;25.67;;
19929;SDS011;10127;47.780;9.606;2022-08-19T08:18:56;35.83;;;26.48;;
19929;SDS011;10127;47.780;9.606;2022-08-19T08:21:22;35.03;;;25.98;;
19929;SDS011;10127;47.780;9.606;2022-08-19T08:23:48;33.38;;;24.50;;
19929;SDS011;10127;47.780;9.606;2022-08-19T08:26:13;39.13;;;26.23;;
19929;SDS011;10127;47.780;9.606;2022-08-19T08:28:39;34.60;;;25.77;;
19929;SDS011;10127;47.780;9.606;2022-08-19T08:31:05;34.10;;;25.17;;
19929;SDS011;10127;47.780;9.606;2022-08-19T08:33:31;34.92;;;25.80;;
19929;SDS011;10127;47.780;9.606;2022-08-19T08:35:56;34.63;;;25.70;;
19929;SDS011;10127;47.780;9.606;2022-08-19T08:38:22;38.90;;;27.30;;
19929;SDS011;10127;47.780;9.606;2022-08-19T08:40:49;38.67;;;27.48;;
19929;SDS011;10127;47.780;9.606;2022-08-19T08:43:30;36.80;;;27.08;;
19929;SDS011;10127;47.780;9.606;2022-08-19T08:48:41;40.47;;;29.08;;
19929;SDS011;10127;47.780;9.606;2022-08-19T08:51:15;43.40;;;31.02;;
19929;SDS011;10127;47.780;9.606;2022-08-19T08:53:49;46.05;;;30.58;;
19929;SDS011;10127;47.780;9.606;2022-08-19T08:56:17;43.17;;;31.00;;
19929;SDS011;10127;47.780;9.606;2022-08-19T09:01:19;49.47;;;30.92;;
19929;SDS011;10127;47.780;9.606;2022-08-19T09:03:45;46.78;;;32.13;;
19929;SDS011;10127;47.780;9.606;2022-08-19T09:06:12;47.15;;;31.70;;
19929;SDS011;10127;47.780;9.606;2022-08-19T09:08:47;52.80;;;33.00;;
19929;SDS011;10127;47.780;9.606;2022-08-19T09:14:08;47.53;;;33.60;;
19929;SDS011;10127;47.780;9.606;2022-08-19T09:16:57;56.58;;;33.97;;
19929;SDS011;10127;47.780;9.606;2022-08-19T09:19:24;50.58;;;33.28;;
19929;SDS011;10127;47.780;9.606;2022-08-19T09:21:50;59.33;;;34.75;;
19929;SDS011;10127;47.780;9.606;2022-08-19T09:24:15;56.47;;;33.22;;
19929;SDS011;10127;47.780;9.606;2022-08-19T09:26:41;58.70;;;33.53;;
19929;SDS011;10127;47.780;9.606;2022-08-19T09:29:08;49.40;;;34.00;;
19929;SDS011;10127;47.780;9.606;2022-08-19T09:31:35;48.33;;;32.58;;
19929;SDS011;10127;47.780;9.606;2022-08-19T09:34:02;46.88;;;32.42;;
19929;SDS011;10127;47.780;9.606;2022-08-19T09:36:29;41.47;;;30.88;;
19929;SDS011;10127;47.780;9.606;2022-08-19T09:39:02;50.72;;;33.47;;
19929;SDS011;10127;47.780;9.606;2022-08-19T09:41:29;45.60;;;30.83;;
19929;SDS011;10127;47.780;9.606;2022-08-19T09:43:55;46.08;;;31.88;;
19929;SDS011;10127;47.780;9.606;2022-08-19T09:46:22;42.90;;;30.50;;
19929;SDS011;10127;47.780;9.606;2022-08-19T09:48:50;44.35;;;31.17;;
19929;SDS011;10127;47.780;9.606;2022-08-19T09:51:18;44.60;;;29.40;;
19929;SDS011;10127;47.780;9.606;2022-08-19T09:53:46;49.22;;;32.22;;
19929;SDS011;10127;47.780;9.606;2022-08-19T09:56:17;51.47;;;31.20;;
19929;SDS011;10127;47.780;9.606;2022-08-19T09:58:43;51.50;;;30.35;;
19929;SDS011;10127;47.780;9.606;2022-08-19T10:01:11;55.72;;;33.35;;
19929;SDS011;10127;47.780;9.606;2022-08-19T10:03:42;47.53;;;30.48;;
19929;SDS011;10127;47.780;9.606;2022-08-19T10:06:07;49.78;;;31.33;;
19929;SDS011;10127;47.780;9.606;2022-08-19T10:08:34;43.17;;;31.10;;
19929;SDS011;10127;47.780;9.606;2022-08-19T10:11:01;45.15;;;30.90;;
19929;SDS011;10127;47.780;9.606;2022-08-19T10:13:29;43.70;;;32.10;;
19929;SDS011;10127;47.780;9.606;2022-08-19T10:16:01;45.90;;;31.55;;
19929;SDS011;10127;47.780;9.606;2022-08-19T10:18:29;46.22;;;32.13;;
19929;SDS011;10127;47.780;9.606;2022-08-19T10:21:02;46.22;;;32.00;;
19929;SDS011;10127;47.780;9.606;2022-08-19T10:23:35;46.35;;;33.25;;
19929;SDS011;10127;47.780;9.606;2022-08-19T10:26:03;51.17;;;32.63;;
19929;SDS011;10127;47.780;9.606;2022-08-19T10:28:30;51.45;;;33.47;;
19929;SDS011;10127;47.780;9.606;2022-08-19T10:31:06;46.03;;;32.60;;
19929;SDS011;10127;47.780;9.606;2022-08-19T10:33:33;46.40;;;32.55;;
19929;SDS011;10127;47.780;9.606;2022-08-19T10:36:01;45.90;;;32.35;;
19929;SDS011;10127;47.780;9.606;2022-08-19T10:38:28;47.30;;;33.67;;
19929;SDS011;10127;47.780;9.606;2022-08-19T10:40:54;47.63;;;33.97;;
19929;SDS011;10127;47.780;9.606;2022-08-19T10:43:20;53.53;;;36.60;;
19929;SDS011;10127;47.780;9.606;2022-08-19T10:45:51;52.10;;;34.70;;
19929;SDS011;10127;47.780;9.606;2022-08-19T10:48:20;48.42;;;32.15;;
19929;SDS011;10127;47.780;9.606;2022-08-19T10:50:45;48.33;;;33.78;;
19929;SDS011;10127;47.780;9.606;2022-08-19T10:53:30;48.38;;;33.35;;
19929;SDS011;10127;47.780;9.606;2022-08-19T10:55:55;44.97;;;31.30;;
19929;SDS011;10127;47.780;9.606;2022-08-19T10:58:47;47.05;;;32.75;;
19929;SDS011;10127;47.780;9.606;2022-08-19T11:01:13;43.83;;;32.03;;
19929;SDS011;10127;47.780;9.606;2022-08-19T11:03:38;50.75;;;33.70;;
19929;SDS011;10127;47.780;9.606;2022-08-19T11:06:06;46.45;;;32.35;;
19929;SDS011;10127;47.780;9.606;2022-08-19T11:08:33;43.63;;;31.95;;
19929;SDS011;10127;47.780;9.606;2022-08-19T11:11:02;50.20;;;31.45;;
19929;SDS011;10127;47.780;9.606;2022-08-19T11:13:33;43.70;;;30.20;;
19929;SDS011;10127;47.780;9.606;2022-08-19T11:18:36;43.17;;;31.15;;
19929;SDS011;10127;47.780;9.606;2022-08-19T11:21:23;42.15;;;31.17;;
19929;SDS011;10127;47.780;9.606;2022-08-19T11:23:58;44.28;;;31.05;;
19929;SDS011;10127;47.780;9.606;2022-08-19T11:26:30;43.22;;;30.42;;
19929;SDS011;10127;47.780;9.606;2022-08-19T11:28:57;41.60;;;28.83;;
19929;SDS011;10127;47.780;9.606;2022-08-19T11:31:25;38.65;;;28.60;;
19929;SDS011;10127;47.780;9.606;2022-08-19T11:33:52;40.20;;;29.50;;
19929;SDS011;10127;47.780;9.606;2022-08-19T11:36:19;37.40;;;29.15;;
19929;SDS011;10127;47.780;9.606;2022-08-19T11:38:46;40.03;;;28.67;;
19929;SDS011;10127;47.780;9.606;2022-08-19T11:41:13;34.15;;;26.50;;
19929;SDS011;10127;47.780;9.606;2022-08-19T11:43:40;36.30;;;27.10;;
19929;SDS011;10127;47.780;9.606;2022-08-19T11:46:06;36.75;;;26.40;;
19929;SDS011;10127;47.780;9.606;2022-08-19T11:48:33;35.38;;;26.55;;
19929;SDS011;10127;47.780;9.606;2022-08-19T11:51:02;38.63;;;26.60;;
19929;SDS011;10127;47.780;9.606;2022-08-19T11:53:31;40.30;;;26.17;;
19929;SDS011;10127;47.780;9.606;2022-08-19T11:55:57;35.90;;;24.67;;
19929;SDS011;10127;47.780;9.606;2022-08-19T11:58:23;34.08;;;24.65;;
19929;SDS011;10127;47.780;9.606;2022-08-19T12:00:50;29.98;;;22.23;;
19929;SDS011;10127;47.780;9.606;2022-08-19T12:03:16;28.48;;;21.48;;
19929;SDS011;10127;47.780;9.606;2022-08-19T12:05:43;27.70;;;21.52;;
19929;SDS011;10127;47.780;9.606;2022-08-19T12:08:09;25.98;;;21.20;;
19929;SDS011;10127;47.780;9.606;2022-08-19T12:10:34;21.85;;;18.88;;
19929;SDS011;10127;47.780;9.606;2022-08-19T12:13:00;24.75;;;19.98;;
19929;SDS011;10127;47.780;9.606;2022-08-19T12:15:26;24.38;;;19.75;;
19929;SDS011;10127;47.780;9.606;2022-08-19T12:17:54;25.83;;;19.13;;
19929;SDS011;10127;47.780;9.606;2022-08-19T12:20:21;24.98;;;20.17;;
19929;SDS011;10127;47.780;9.606;2022-08-19T12:22:49;24.17;;;17.90;;
19929;SDS011;10127;47.780;9.606;2022-08-19T12:25:15;25.73;;;19.38;;
19929;SDS011;10127;47.780;9.606;2022-08-19T12:27:41;26.88;;;20.58;;
19929;SDS011;10127;47.780;9.606;2022-08-19T12:30:08;22.60;;;18.50;;
19929;SDS011;10127;47.780;9.606;2022-08-19T12:32:36;23.58;;;18.92;;
19929;SDS011;10127;47.780;9.606;2022-08-19T12:35:02;23.88;;;18.75;;
19929;SDS011;10127;47.780;9.606;2022-08-19T12:37:28;20.55;;;16.50;;
19929;SDS011;10127;47.780;9.606;2022-08-19T12:39:56;22.95;;;18.00;;
19929;SDS011;10127;47.780;9.606;2022-08-19T12:42:22;27.58;;;20.08;;
19929;SDS011;10127;47.780;9.606;2022-08-19T12:44:47;24.05;;;18.95;;
19929;SDS011;10127;47.780;9.606;2022-08-19T12:47:13;22.85;;;19.05;;
19929;SDS011;10127;47.780;9.606;2022-08-19T12:49:39;24.20;;;19.00;;
19929;SDS011;10127;47.780;9.606;2022-08-19T12:52:06;27.95;;;19.38;;
19929;SDS011;10127;47.780;9.606;2022-08-19T12:54:33;21.20;;;17.85;;
19929;SDS011;10127;47.780;9.606;2022-08-19T12:57:00;24.65;;;18.85;;
19929;SDS011;10127;47.780;9.606;2022-08-19T12:59:29;26.17;;;19.63;;
19929;SDS011;10127;47.780;9.606;2022-08-19T13:01:54;20.05;;;17.77;;
19929;SDS011;10127;47.780;9.606;2022-08-19T13:04:20;26.13;;;19.77;;
19929;SDS011;10127;47.780;9.606;2022-08-19T13:06:45;25.10;;;20.05;;
19929;SDS011;10127;47.780;9.606;2022-08-19T13:09:11;23.20;;;18.60;;
19929;SDS011;10127;47.780;9.606;2022-08-19T13:11:37;25.15;;;20.35;;
19929;SDS011;10127;47.780;9.606;2022-08-19T13:14:03;22.95;;;18.58;;
19929;SDS011;10127;47.780;9.606;2022-08-19T13:16:29;24.13;;;18.10;;
19929;SDS011;10127;47.780;9.606;2022-08-19T13:18:56;25.00;;;17.48;;
19929;SDS011;10127;47.780;9.606;2022-08-19T13:21:23;20.23;;;16.13;;
19929;SDS011;10127;47.780;9.606;2022-08-19T13:23:55;23.88;;;17.88;;
19929;SDS011;10127;47.780;9.606;2022-08-19T13:26:20;21.15;;;16.50;;
19929;SDS011;10127;47.780;9.606;2022-08-19T13:28:46;19.05;;;14.85;;
19929;SDS011;10127;47.780;9.606;2022-08-19T13:31:32;15.80;;;13.20;;
19929;SDS011;10127;47.780;9.606;2022-08-19T13:34:18;19.10;;;15.13;;
19929;SDS011;10127;47.780;9.606;2022-08-19T13:36:51;15.45;;;11.75;;
19929;SDS011;10127;47.780;9.606;2022-08-19T13:39:17;14.30;;;11.52;;
19929;SDS011;10127;47.780;9.606;2022-08-19T13:41:44;19.20;;;11.88;;
19929;SDS011;10127;47.780;9.606;2022-08-19T13:44:15;12.93;;;11.40;;
19929;SDS011;10127;47.780;9.606;2022-08-19T13:46:43;12.63;;;9.50;;
19929;SDS011;10127;47.780;9.606;2022-08-19T13:49:10;12.15;;;10.55;;
19929;SDS011;10127;47.780;9.606;2022-08-19T13:51:37;12.07;;;10.77;;
19929;SDS011;10127;47.780;9.606;2022-08-19T13:54:05;12.93;;;9.88;;
19929;SDS011;10127;47.780;9.606;2022-08-19T13:56:31;13.30;;;10.27;;
19929;SDS011;10127;47.780;9.606;2022-08-19T13:58:57;12.68;;;10.63;;
19929;SDS011;10127;47.780;9.606;2022-08-19T14:01:22;11.00;;;9.90;;
19929;SDS011;10127;47.780;9.606;2022-08-19T14:03:48;11.50;;;10.30;;
19929;SDS011;10127;47.780;9.606;2022-08-19T14:06:14;13.02;;;10.35;;
19929;SDS011;10127;47.780;9.606;2022-08-19T14:08:40;14.02;;;11.25;;
19929;SDS011;10127;47.780;9.606;2022-08-19T14:11:06;12.63;;;11.13;;
19929;SDS011;10127;47.780;9.606;2022-08-19T14:13:32;16.65;;;12.40;;
19929;SDS011;10127;47.780;9.606;2022-08-19T14:15:58;17.42;;;11.85;;
19929;SDS011;10127;47.780;9.606;2022-08-19T14:18:24;14.73;;;12.43;;
19929;SDS011;10127;47.780;9.606;2022-08-19T14:20:51;14.95;;;12.23;;
19929;SDS011;10127;47.780;9.606;2022-08-19T14:23:17;13.88;;;12.45;;
19929;SDS011;10127;47.780;9.606;2022-08-19T14:25:42;13.38;;;12.00;;
19929;SDS011;10127;47.780;9.606;2022-08-19T14:28:09;18.52;;;13.45;;
19929;SDS011;10127;47.780;9.606;2022-08-19T14:30:35;15.25;;;13.65;;
19929;SDS011;10127;47.780;9.606;2022-08-19T14:33:02;15.45;;;13.88;;
19929;SDS011;10127;47.780;9.606;2022-08-19T14:35:30;15.32;;;13.75;;
19929;SDS011;10127;47.780;9.606;2022-08-19T14:37:59;17.58;;;13.77;;
19929;SDS011;10127;47.780;9.606;2022-08-19T14:40:25;17.58;;;14.02;;
19929;SDS011;10127;47.780;9.606;2022-08-19T14:42:53;15.68;;;14.07;;
19929;SDS011;10127;47.780;9.606;2022-08-19T14:45:28;18.67;;;14.52;;
19929;SDS011;10127;47.780;9.606;2022-08-19T14:47:54;19.45;;;14.65;;
19929;SDS011;10127;47.780;9.606;2022-08-19T14:50:20;18.15;;;15.10;;
19929;SDS011;10127;47.780;9.606;2022-08-19T14:52:46;17.63;;;15.00;;
19929;SDS011;10127;47.780;9.606;2022-08-19T14:55:13;18.13;;;14.95;;
19929;SDS011;10127;47.780;9.606;2022-08-19T14:57:40;19.52;;;16.00;;